Time;durP1;ratioP1;P1;durP2;ratioP2;P2;SDS_P1;SDS_P2;PMS_P1;PMS_P2;Temp;Humidity;BMP_temperature;BMP_pressure;BME280_temperature;BME280_humidity;BME280_pressure;Samples;Min_cycle;Max_cycle;Signal;HPM_P1;HPM_P2
2023/05/14 00:01:40;;;;;;;7.35;3.83;;;14.90;55.80;;;;;;5020213;28;20072;-46
2023/05/14 00:04:08;;;;;;;5.85;3.90;;;14.80;55.80;;;;;;5020236;28;20481;-45
2023/05/14 00:06:35;;;;;;;6.55;4.05;;;14.80;55.80;;;;;;5019420;28;20060;-45
2023/05/14 00:09:03;;;;;;;7.70;3.88;;;14.80;55.90;;;;;;5021927;28;20057;-46
2023/05/14 00:11:30;;;;;;;4.32;3.60;;;14.70;55.90;;;;;;5021092;28;20057;-45
2023/05/14 00:13:57;;;;;;;5.30;3.72;;;14.70;56.00;;;;;;5021240;28;20082;-46
2023/05/14 00:16:25;;;;;;;6.35;4.60;;;14.70;56.10;;;;;;5017823;28;20071;-45
2023/05/14 00:18:52;;;;;;;4.22;3.80;;;14.60;56.10;;;;;;5021844;28;20417;-49
2023/05/14 00:21:20;;;;;;;5.18;4.10;;;14.60;56.10;;;;;;5020762;28;20071;-47
2023/05/14 00:23:47;;;;;;;4.55;3.50;;;14.60;56.30;;;;;;5021712;28;20060;-46
2023/05/14 00:26:15;;;;;;;6.53;3.42;;;14.60;56.20;;;;;;5020453;28;20068;-45
2023/05/14 00:28:42;;;;;;;4.35;3.95;;;14.60;56.20;;;;;;5017282;28;20504;-45
2023/05/14 00:31:10;;;;;;;4.10;3.47;;;14.60;56.10;;;;;;5018718;28;20068;-45
2023/05/14 00:33:37;;;;;;;4.25;3.72;;;14.50;56.00;;;;;;5021503;28;20060;-47
2023/05/14 00:36:04;;;;;;;4.90;3.90;;;14.50;56.00;;;;;;5020095;28;20060;-47
2023/05/14 00:38:33;;;;;;;5.45;3.58;;;14.50;56.10;;;;;;5017143;28;20083;-46
2023/05/14 00:41:00;;;;;;;6.65;3.63;;;14.40;56.10;;;;;;5020264;28;20057;-47
2023/05/14 00:43:27;;;;;;;7.28;4.18;;;14.40;56.10;;;;;;5019774;28;20049;-46
2023/05/14 00:45:55;;;;;;;9.50;4.20;;;14.30;56.10;;;;;;5016551;28;20049;-47
2023/05/14 00:48:23;;;;;;;8.38;3.92;;;14.30;56.30;;;;;;5019167;28;20053;-47
2023/05/14 00:50:51;;;;;;;7.20;3.58;;;14.30;56.30;;;;;;5016796;28;20056;-45
2023/05/14 00:53:19;;;;;;;5.07;4.30;;;14.30;56.40;;;;;;5019443;28;20108;-46
2023/05/14 00:55:49;;;;;;;6.05;4.25;;;14.20;56.40;;;;;;5020390;28;20516;-47
2023/05/14 00:58:18;;;;;;;7.63;4.30;;;14.20;56.60;;;;;;5020290;28;20050;-45
2023/05/14 01:00:45;;;;;;;5.45;4.22;;;14.20;56.60;;;;;;5020011;28;20053;-48
2023/05/14 01:03:13;;;;;;;4.72;3.97;;;14.20;56.70;;;;;;5033302;23;20048;-49
2023/05/14 01:05:52;;;;;;;5.93;4.50;;;14.20;56.70;;;;;;5048820;28;20063;-39
2023/05/14 01:08:29;;;;;;;4.88;4.03;;;14.10;56.80;;;;;;5056379;28;20056;-42
2023/05/14 01:11:04;;;;;;;5.85;3.90;;;14.10;56.90;;;;;;5048188;28;20048;-39
2023/05/14 01:13:40;;;;;;;5.72;4.13;;;14.10;56.90;;;;;;5050393;28;20056;-39
2023/05/14 01:16:12;;;;;;;6.72;4.68;;;14.10;57.00;;;;;;5047176;28;20048;-42
2023/05/14 01:18:42;;;;;;;6.70;4.25;;;14.00;57.00;;;;;;5056204;28;20053;-40
2023/05/14 01:21:32;;;;;;;4.90;4.07;;;14.00;57.00;;;;;;5053535;28;20060;-39
2023/05/14 01:24:00;;;;;;;5.90;4.40;;;14.00;57.20;;;;;;5056591;28;20044;-40
2023/05/14 01:26:29;;;;;;;6.38;4.03;;;14.00;57.10;;;;;;5054982;28;20048;-40
2023/05/14 01:29:01;;;;;;;5.15;4.00;;;14.00;57.20;;;;;;5051423;28;20061;-40
2023/05/14 01:31:32;;;;;;;4.70;3.85;;;14.00;57.30;;;;;;5052521;28;20052;-40
2023/05/14 01:34:00;;;;;;;4.70;3.60;;;14.00;57.30;;;;;;5029952;28;20067;-40
2023/05/14 01:36:30;;;;;;;4.85;3.90;;;14.00;57.30;;;;;;5054048;28;20063;-40
2023/05/14 01:38:58;;;;;;;4.57;3.47;;;14.00;57.30;;;;;;5053015;28;20055;-38
2023/05/14 01:41:26;;;;;;;5.50;4.10;;;13.90;57.20;;;;;;5053282;28;20061;-42
2023/05/14 01:43:53;;;;;;;4.93;3.63;;;13.90;57.10;;;;;;5055232;28;20052;-42
2023/05/14 01:46:22;;;;;;;5.30;3.78;;;13.90;57.10;;;;;;5054347;28;20060;-41
2023/05/14 01:48:50;;;;;;;8.02;3.97;;;13.90;57.10;;;;;;5056251;28;20048;-44
2023/05/14 01:51:17;;;;;;;6.60;4.20;;;13.90;57.10;;;;;;5057127;28;20058;-44
2023/05/14 01:53:46;;;;;;;4.80;3.83;;;13.90;57.10;;;;;;5052931;28;21007;-44
2023/05/14 01:56:13;;;;;;;4.10;3.40;;;13.80;57.00;;;;;;5053826;28;20071;-43
2023/05/14 01:58:40;;;;;;;4.10;3.60;;;13.80;57.00;;;;;;5057894;28;20408;-43
2023/05/14 02:01:07;;;;;;;5.47;4.10;;;13.80;57.00;;;;;;5057094;28;20052;-41
2023/05/14 02:03:35;;;;;;;5.20;4.22;;;13.80;57.10;;;;;;5053387;28;20392;-43
2023/05/14 02:06:02;;;;;;;4.65;3.60;;;13.70;57.00;;;;;;5058452;28;20044;-40
2023/05/14 02:08:29;;;;;;;4.30;3.90;;;13.70;57.00;;;;;;5060282;28;20044;-41
2023/05/14 02:10:58;;;;;;;6.10;4.05;;;13.70;57.10;;;;;;5060814;28;20049;-40
2023/05/14 02:13:25;;;;;;;5.38;4.47;;;13.70;57.20;;;;;;5056531;28;20060;-39
2023/05/14 02:15:52;;;;;;;6.00;4.80;;;13.60;57.20;;;;;;5057193;28;20135;-42
2023/05/14 02:18:19;;;;;;;6.80;5.10;;;13.60;57.20;;;;;;5061225;28;20527;-48
2023/05/14 02:20:47;;;;;;;8.13;5.30;;;13.60;57.20;;;;;;5062322;28;20053;-46
2023/05/14 02:23:14;;;;;;;8.50;5.35;;;13.50;57.20;;;;;;5057446;28;20059;-50
2023/05/14 02:25:41;;;;;;;5.57;4.35;;;13.50;57.30;;;;;;5058450;28;20052;-49
2023/05/14 02:28:10;;;;;;;6.80;4.45;;;13.50;57.40;;;;;;5061844;28;20449;-47
2023/05/14 02:30:37;;;;;;;11.50;4.80;;;13.50;57.40;;;;;;5056618;28;20057;-46
2023/05/14 02:33:04;;;;;;;6.32;4.68;;;13.50;57.40;;;;;;5056217;28;20064;-47
2023/05/14 02:35:31;;;;;;;5.93;4.80;;;13.40;58.00;;;;;;5060895;28;20083;-45
2023/05/14 02:37:59;;;;;;;6.18;4.70;;;13.40;57.60;;;;;;5059757;28;20052;-48
2023/05/14 02:40:26;;;;;;;8.02;5.35;;;13.40;57.60;;;;;;5061118;28;21054;-50
2023/05/14 02:42:53;;;;;;;6.15;4.60;;;13.40;57.60;;;;;;5056620;28;20060;-41
2023/05/14 02:45:22;;;;;;;7.07;4.72;;;13.40;57.60;;;;;;5059053;28;20057;-43
2023/05/14 02:47:49;;;;;;;5.43;4.85;;;13.30;57.70;;;;;;5057267;28;20488;-40
2023/05/14 02:50:16;;;;;;;6.28;4.60;;;13.30;57.70;;;;;;5061175;28;20079;-40
2023/05/14 02:52:44;;;;;;;5.88;5.03;;;13.30;57.70;;;;;;5057062;28;20053;-40
2023/05/14 02:55:11;;;;;;;10.35;5.57;;;13.30;57.80;;;;;;5060117;28;20048;-39
2023/05/14 02:57:38;;;;;;;8.40;4.72;;;13.20;57.70;;;;;;5057870;28;20052;-39
2023/05/14 03:00:07;;;;;;;5.03;4.50;;;13.20;57.70;;;;;;5058855;28;20071;-41
2023/05/14 03:02:36;;;;;;;6.80;4.57;;;13.20;57.70;;;;;;5057095;28;20060;-41
2023/05/14 03:05:04;;;;;;;6.43;4.88;;;13.20;57.80;;;;;;5056207;28;20055;-42
2023/05/14 03:07:31;;;;;;;5.32;4.45;;;13.20;57.80;;;;;;5057352;28;20052;-48
2023/05/14 03:09:59;;;;;;;6.13;4.95;;;13.10;57.80;;;;;;5058976;28;21641;-49
2023/05/14 03:12:26;;;;;;;6.40;4.50;;;13.10;57.80;;;;;;5057579;28;20056;-46
2023/05/14 03:14:54;;;;;;;8.95;5.80;;;13.10;57.90;;;;;;5055880;28;20048;-45
2023/05/14 03:17:21;;;;;;;6.70;5.35;;;13.10;57.90;;;;;;5055094;28;20491;-46
2023/05/14 03:19:50;;;;;;;6.57;5.40;;;13.10;57.90;;;;;;5055338;28;20053;-48
2023/05/14 03:22:17;;;;;;;6.63;5.13;;;13.00;57.90;;;;;;5058566;28;20055;-50
2023/05/14 03:24:44;;;;;;;7.22;5.10;;;13.10;58.00;;;;;;5056495;28;20492;-47
2023/05/14 03:27:12;;;;;;;9.85;6.28;;;13.00;58.00;;;;;;5053313;28;20048;-49
2023/05/14 03:29:39;;;;;;;6.95;5.20;;;13.00;58.50;;;;;;5051409;28;20052;-47
2023/05/14 03:32:07;;;;;;;6.78;5.30;;;13.00;58.10;;;;;;5054987;28;20504;-46
2023/05/14 03:34:34;;;;;;;9.20;6.07;;;12.90;58.10;;;;;;5059028;28;20057;-43
2023/05/14 03:37:03;;;;;;;7.82;5.13;;;13.00;58.10;;;;;;5057631;28;20048;-49
2023/05/14 03:39:30;;;;;;;9.93;5.78;;;12.90;58.10;;;;;;5058962;28;20068;-45
2023/05/14 03:41:57;;;;;;;8.13;6.00;;;12.90;58.10;;;;;;5055734;28;20067;-44
2023/05/14 03:44:25;;;;;;;8.38;6.20;;;12.90;58.20;;;;;;5058044;28;20508;-46
2023/05/14 03:46:52;;;;;;;8.20;5.90;;;12.90;58.20;;;;;;5055935;28;20068;-44
2023/05/14 03:49:19;;;;;;;8.43;6.22;;;12.90;58.30;;;;;;5056057;28;20523;-48
2023/05/14 03:51:46;;;;;;;9.18;6.38;;;12.90;58.30;;;;;;5057917;28;20076;-43
2023/05/14 03:54:15;;;;;;;11.43;6.18;;;12.90;58.30;;;;;;5056505;28;20048;-44
2023/05/14 03:56:42;;;;;;;7.13;5.72;;;12.80;58.30;;;;;;5057760;28;20064;-49
2023/05/14 03:59:09;;;;;;;6.90;5.80;;;12.80;58.30;;;;;;5053518;28;20056;-47
2023/05/14 04:01:37;;;;;;;12.65;7.00;;;12.80;58.30;;;;;;5056178;28;20048;-46
2023/05/14 04:04:04;;;;;;;9.27;7.10;;;12.80;58.40;;;;;;5056298;28;20048;-49
2023/05/14 04:06:32;;;;;;;8.50;6.07;;;12.80;58.40;;;;;;5053526;28;20428;-46
2023/05/14 04:08:59;;;;;;;7.65;5.85;;;12.80;58.40;;;;;;5057399;28;20504;-51
2023/05/14 04:11:28;;;;;;;10.43;5.82;;;12.80;58.40;;;;;;5054191;28;20065;-49
2023/05/14 04:14:00;;;;;;;6.30;5.15;;;12.80;58.40;;;;;;5049191;28;20068;-49
2023/05/14 04:16:30;;;;;;;14.35;5.78;;;12.80;58.40;;;;;;5043300;28;20412;-48
2023/05/14 04:19:04;;;;;;;7.13;5.70;;;12.70;58.40;;;;;;5049367;28;20056;-43
2023/05/14 04:21:33;;;;;;;6.97;5.63;;;12.70;58.40;;;;;;5050128;28;20057;-48
2023/05/14 04:24:01;;;;;;;7.75;5.72;;;12.70;58.40;;;;;;5058343;28;20072;-48
2023/05/14 04:26:32;;;;;;;8.10;6.18;;;12.70;58.40;;;;;;5051671;28;20063;-47
2023/05/14 04:29:02;;;;;;;8.32;6.00;;;12.70;58.60;;;;;;5055543;28;21282;-47
2023/05/14 04:31:30;;;;;;;10.73;6.50;;;12.70;58.60;;;;;;5056191;28;20056;-50
2023/05/14 04:34:03;;;;;;;10.75;7.30;;;12.60;58.70;;;;;;5042213;28;20574;-45
2023/05/14 04:36:35;;;;;;;8.32;6.90;;;12.70;58.90;;;;;;5036822;28;20452;-48
2023/05/14 04:39:04;;;;;;;9.85;7.57;;;12.70;59.00;;;;;;5037909;28;20045;-49
2023/05/14 04:41:33;;;;;;;7.72;6.38;;;12.70;59.10;;;;;;5038434;28;20053;-48
2023/05/14 04:44:05;;;;;;;7.97;6.00;;;12.70;59.20;;;;;;5033897;28;20065;-48
2023/05/14 04:46:35;;;;;;;7.40;6.18;;;12.70;59.20;;;;;;5036940;28;20061;-46
2023/05/14 04:49:05;;;;;;;9.30;6.15;;;12.70;59.30;;;;;;5034286;28;20059;-46
2023/05/14 04:51:37;;;;;;;8.05;6.72;;;12.70;59.30;;;;;;5037390;28;20061;-49
2023/05/14 04:54:08;;;;;;;10.00;7.43;;;12.70;59.30;;;;;;5036372;28;20053;-46
2023/05/14 04:56:39;;;;;;;8.35;7.18;;;12.70;59.30;;;;;;5036457;28;20052;-43
2023/05/14 04:59:07;;;;;;;8.88;6.07;;;12.80;59.50;;;;;;5037228;28;20405;-48
2023/05/14 05:01:35;;;;;;;8.05;5.70;;;12.80;59.50;;;;;;5032854;28;20056;-49
2023/05/14 05:04:02;;;;;;;8.07;6.25;;;12.80;59.60;;;;;;5031045;28;20052;-47
2023/05/14 05:06:30;;;;;;;10.25;5.85;;;12.80;59.60;;;;;;5034601;28;20500;-46
2023/05/14 05:08:57;;;;;;;10.77;7.07;;;12.80;59.60;;;;;;5033526;28;20131;-45
2023/05/14 05:11:24;;;;;;;9.82;6.50;;;12.80;59.70;;;;;;5035844;28;20052;-43
2023/05/14 05:13:53;;;;;;;12.32;6.90;;;12.90;59.70;;;;;;5041817;28;20416;-46
2023/05/14 05:16:20;;;;;;;9.95;7.22;;;12.90;59.70;;;;;;5038411;28;20119;-46
2023/05/14 05:18:47;;;;;;;9.55;6.60;;;12.90;59.80;;;;;;5040333;28;20053;-47
2023/05/14 05:21:15;;;;;;;9.20;6.90;;;12.90;59.80;;;;;;5038714;28;20057;-48
2023/05/14 05:23:42;;;;;;;10.10;7.38;;;12.90;59.90;;;;;;5040271;28;20059;-48
2023/05/14 05:26:09;;;;;;;10.00;7.55;;;13.00;60.00;;;;;;5040062;28;20533;-47
2023/05/14 05:28:39;;;;;;;8.13;6.55;;;13.00;60.20;;;;;;5040858;28;20056;-46
2023/05/14 05:31:07;;;;;;;13.45;8.07;;;13.00;60.40;;;;;;5038544;28;20477;-50
2023/05/14 05:33:35;;;;;;;9.65;7.50;;;13.10;60.60;;;;;;5039629;28;20504;-48
2023/05/14 05:36:02;;;;;;;13.93;7.18;;;13.10;60.60;;;;;;5040362;28;20515;-46
2023/05/14 05:38:29;;;;;;;11.68;7.88;;;13.10;60.70;;;;;;5040046;28;20061;-45
2023/05/14 05:40:56;;;;;;;8.18;6.95;;;13.20;61.00;;;;;;5035883;28;20056;-46
2023/05/14 05:43:24;;;;;;;10.15;6.85;;;13.20;61.20;;;;;;5041402;28;20053;-46
2023/05/14 05:45:57;;;;;;;13.30;6.28;;;13.30;61.50;;;;;;5039327;28;20522;-49
2023/05/14 05:48:26;;;;;;;8.05;6.70;;;13.30;61.70;;;;;;5040851;28;20068;-48
2023/05/14 05:50:53;;;;;;;7.28;6.38;;;13.40;61.90;;;;;;5031562;28;20057;-46
2023/05/14 05:53:20;;;;;;;12.95;9.32;;;13.40;61.90;;;;;;5036653;28;20065;-48
2023/05/14 05:55:50;;;;;;;9.63;8.00;;;13.50;62.50;;;;;;5041545;28;20057;-46
2023/05/14 05:58:17;;;;;;;16.65;9.75;;;13.50;62.80;;;;;;5040122;28;20519;-45
2023/05/14 06:00:45;;;;;;;10.43;8.32;;;13.60;63.20;;;;;;5038549;28;20053;-48
2023/05/14 06:03:13;;;;;;;11.15;8.18;;;13.60;63.30;;;;;;5031972;28;20493;-46
2023/05/14 06:05:42;;;;;;;12.00;8.32;;;13.70;63.60;;;;;;5037664;28;20524;-45
2023/05/14 06:08:09;;;;;;;9.68;7.88;;;13.80;63.80;;;;;;5039646;28;20052;-44
2023/05/14 06:10:36;;;;;;;10.27;7.75;;;13.80;63.80;;;;;;5039417;28;20049;-47
2023/05/14 06:13:04;;;;;;;12.10;8.43;;;14.00;64.00;;;;;;5036977;28;20060;-45
2023/05/14 06:15:31;;;;;;;12.13;8.57;;;14.00;64.00;;;;;;5038341;28;20057;-45
2023/05/14 06:17:58;;;;;;;11.35;8.48;;;14.10;64.00;;;;;;5039257;28;20411;-43
2023/05/14 06:20:25;;;;;;;13.13;10.52;;;14.10;63.90;;;;;;5039451;28;20049;-43
2023/05/14 06:22:54;;;;;;;22.17;15.68;;;14.30;64.00;;;;;;5041399;28;20488;-43
2023/05/14 06:25:21;;;;;;;15.90;12.95;;;14.30;64.10;;;;;;5038353;28;20057;-48
2023/05/14 06:27:48;;;;;;;13.88;11.23;;;14.40;64.10;;;;;;5039401;28;20059;-46
2023/05/14 06:30:16;;;;;;;14.93;11.55;;;14.50;64.00;;;;;;5037457;28;20049;-48
2023/05/14 06:32:43;;;;;;;17.30;11.35;;;14.50;63.80;;;;;;5029677;28;20048;-47
2023/05/14 06:35:10;;;;;;;16.08;12.05;;;14.70;63.80;;;;;;5035271;28;20505;-47
2023/05/14 06:37:37;;;;;;;16.05;11.85;;;14.70;63.80;;;;;;5034342;28;20646;-47
2023/05/14 06:40:07;;;;;;;13.98;11.65;;;14.80;63.70;;;;;;5032390;28;20052;-46
2023/05/14 06:42:35;;;;;;;16.23;11.70;;;14.90;63.90;;;;;;5037240;28;20970;-46
2023/05/14 06:45:02;;;;;;;16.25;11.85;;;15.00;63.70;;;;;;5032040;28;20059;-45
2023/05/14 06:47:32;;;;;;;15.18;11.18;;;15.10;63.70;;;;;;5034544;28;20053;-48
2023/05/14 06:50:00;;;;;;;12.88;10.93;;;15.10;63.70;;;;;;5041137;28;21057;-38
2023/05/14 06:52:27;;;;;;;14.05;10.98;;;15.20;63.70;;;;;;5042719;28;20060;-43
2023/05/14 06:54:55;;;;;;;12.15;10.18;;;15.30;63.70;;;;;;5038739;28;20049;-40
2023/05/14 06:57:23;;;;;;;15.10;10.43;;;15.40;63.80;;;;;;5042051;28;20416;-46
2023/05/14 06:59:50;;;;;;;13.70;10.48;;;15.40;63.70;;;;;;5036423;28;20052;-44
2023/05/14 07:02:18;;;;;;;12.45;10.25;;;15.50;63.60;;;;;;5037982;28;20850;-41
2023/05/14 07:04:45;;;;;;;10.55;8.70;;;15.60;63.40;;;;;;5039694;28;20063;-40
2023/05/14 07:07:14;;;;;;;10.93;8.02;;;15.70;63.20;;;;;;5039786;28;20064;-40
2023/05/14 07:09:41;;;;;;;10.10;7.65;;;15.80;63.00;;;;;;5041657;28;20064;-43
2023/05/14 07:12:09;;;;;;;8.80;7.22;;;15.80;62.70;;;;;;5037705;28;20059;-43
2023/05/14 07:14:37;;;;;;;11.05;7.10;;;15.90;62.40;;;;;;5040964;28;20056;-42
2023/05/14 07:17:05;;;;;;;9.55;6.90;;;16.00;62.20;;;;;;5038294;28;20056;-42
2023/05/14 07:19:32;;;;;;;11.55;7.28;;;16.00;62.10;;;;;;5041624;28;20057;-40
2023/05/14 07:22:00;;;;;;;9.65;7.40;;;16.10;62.20;;;;;;5042926;28;20061;-44
2023/05/14 07:24:27;;;;;;;10.85;7.55;;;16.20;62.10;;;;;;5037938;28;20056;-45
2023/05/14 07:26:56;;;;;;;16.92;8.45;;;16.20;60.20;;;;;;5039679;28;20049;-40
2023/05/14 07:29:23;;;;;;;8.50;6.82;;;16.30;59.30;;;;;;5034217;28;20057;-39
2023/05/14 07:31:52;;;;;;;9.23;6.88;;;16.30;59.30;;;;;;5038128;28;20053;-41
2023/05/14 07:34:19;;;;;;;12.90;8.05;;;16.30;59.50;;;;;;5039209;28;20053;-40
2023/05/14 07:36:47;;;;;;;9.13;7.03;;;16.40;59.60;;;;;;5037240;28;20489;-41
2023/05/14 07:39:14;;;;;;;10.80;8.40;;;16.50;59.40;;;;;;5040655;28;20049;-41
2023/05/14 07:41:41;;;;;;;8.23;6.75;;;16.50;59.20;;;;;;5037247;28;20507;-42
2023/05/14 07:44:09;;;;;;;10.05;6.07;;;16.60;59.30;;;;;;5037047;28;20056;-41
2023/05/14 07:46:36;;;;;;;8.32;6.40;;;16.60;59.50;;;;;;5039130;28;20053;-43
2023/05/14 07:49:05;;;;;;;10.32;6.82;;;16.70;59.40;;;;;;5037398;28;20051;-41
2023/05/14 07:51:32;;;;;;;9.27;5.43;;;16.70;58.20;;;;;;5032402;28;20053;-41
2023/05/14 07:53:59;;;;;;;7.18;5.75;;;16.80;58.10;;;;;;5036408;28;20053;-45
2023/05/14 07:56:27;;;;;;;12.68;6.38;;;16.90;58.20;;;;;;5030556;28;20045;-43
2023/05/14 07:58:54;;;;;;;10.68;5.68;;;16.90;58.30;;;;;;5030893;28;20053;-41
2023/05/14 08:01:22;;;;;;;10.35;6.18;;;16.90;57.80;;;;;;5024506;28;20057;-43
2023/05/14 08:03:49;;;;;;;7.80;5.50;;;17.00;58.40;;;;;;5035569;28;20508;-38
2023/05/14 08:06:19;;;;;;;8.32;5.50;;;17.10;58.60;;;;;;5034291;28;20076;-43
2023/05/14 08:08:47;;;;;;;7.85;5.50;;;17.20;58.50;;;;;;5037650;28;20408;-39
2023/05/14 08:11:14;;;;;;;9.38;6.55;;;17.20;58.00;;;;;;5035233;28;20057;-41
2023/05/14 08:13:41;;;;;;;8.55;5.85;;;17.30;57.60;;;;;;5039978;28;20057;-42
2023/05/14 08:16:08;;;;;;;10.98;6.72;;;17.30;57.60;;;;;;5034883;28;20052;-39
2023/05/14 08:18:35;;;;;;;9.95;6.50;;;17.40;57.10;;;;;;5030524;28;20049;-40
2023/05/14 08:21:03;;;;;;;10.43;6.32;;;17.40;57.00;;;;;;5032322;28;20049;-39
2023/05/14 08:23:31;;;;;;;8.60;5.93;;;17.50;57.10;;;;;;5032171;28;20395;-40
2023/05/14 08:25:59;;;;;;;8.45;6.70;;;17.50;57.30;;;;;;5027351;28;20416;-42
2023/05/14 08:28:26;;;;;;;8.25;6.20;;;17.60;57.50;;;;;;5030770;28;20056;-41
2023/05/14 08:30:53;;;;;;;10.68;7.15;;;17.70;57.50;;;;;;5031455;28;20056;-41
2023/05/14 08:33:20;;;;;;;7.35;6.05;;;17.70;57.60;;;;;;5034242;28;20075;-39
2023/05/14 08:35:47;;;;;;;11.13;7.05;;;17.80;57.60;;;;;;5032750;28;20061;-42
2023/05/14 08:38:15;;;;;;;6.55;5.60;;;17.80;57.40;;;;;;5036387;28;20057;-40
2023/05/14 08:40:47;;;;;;;9.95;6.25;;;17.90;57.70;;;;;;5034868;28;20056;-43
2023/05/14 08:43:19;;;;;;;8.80;5.95;;;18.00;57.50;;;;;;5031621;28;20044;-39
2023/05/14 08:45:49;;;;;;;7.90;5.60;;;18.00;57.00;;;;;;5037413;28;20060;-41
2023/05/14 08:48:18;;;;;;;12.77;5.85;;;18.10;56.90;;;;;;5041671;28;20052;-38
2023/05/14 08:50:46;;;;;;;9.50;6.10;;;18.10;56.70;;;;;;5040714;28;20527;-42
2023/05/14 08:53:13;;;;;;;8.88;5.72;;;18.10;56.00;;;;;;5038801;28;20057;-40
2023/05/14 08:55:43;;;;;;;6.45;5.55;;;18.20;55.20;;;;;;5038353;28;20060;-42
2023/05/14 08:58:12;;;;;;;6.90;5.28;;;18.20;55.90;;;;;;5040951;28;20149;-40
2023/05/14 09:00:39;;;;;;;7.43;5.45;;;18.30;55.10;;;;;;5034072;28;20488;-39
2023/05/14 09:03:08;;;;;;;6.10;5.05;;;18.30;55.10;;;;;;5037795;28;20049;-41
2023/05/14 09:05:35;;;;;;;7.07;4.65;;;18.30;55.60;;;;;;5038885;28;20056;-41
2023/05/14 09:08:03;;;;;;;4.80;4.22;;;18.40;55.70;;;;;;5040650;28;20504;-41
2023/05/14 09:10:31;;;;;;;12.02;5.63;;;18.40;55.80;;;;;;5034561;28;20060;-42
2023/05/14 09:13:00;;;;;;;6.80;4.90;;;18.50;54.90;;;;;;5037572;28;20060;-40
2023/05/14 09:15:28;;;;;;;7.10;4.35;;;18.50;54.00;;;;;;5040416;28;20432;-42
2023/05/14 09:17:56;;;;;;;5.90;4.68;;;18.60;54.40;;;;;;5035311;28;20055;-40
2023/05/14 09:20:24;;;;;;;5.03;4.53;;;18.60;54.40;;;;;;5041746;28;20068;-40
2023/05/14 09:22:53;;;;;;;5.30;4.18;;;18.70;54.20;;;;;;5036880;28;20052;-41
2023/05/14 09:25:20;;;;;;;4.78;4.28;;;18.70;54.10;;;;;;5040380;28;20484;-41
2023/05/14 09:27:49;;;;;;;6.25;4.80;;;18.80;53.90;;;;;;5035579;28;20056;-44
2023/05/14 09:30:18;;;;;;;4.78;4.03;;;18.80;54.00;;;;;;5032347;28;20060;-43
2023/05/14 09:32:47;;;;;;;5.55;4.32;;;18.90;53.50;;;;;;5036365;28;20535;-40
2023/05/14 09:35:17;;;;;;;4.25;3.70;;;19.00;53.80;;;;;;5040570;28;20507;-42
2023/05/14 09:37:46;;;;;;;6.97;3.92;;;19.10;53.80;;;;;;5035921;28;20416;-42
2023/05/14 09:40:14;;;;;;;7.65;4.30;;;19.10;53.50;;;;;;5038929;28;20143;-41
2023/05/14 09:42:42;;;;;;;6.22;4.30;;;19.20;53.60;;;;;;5030718;28;20556;-43
2023/05/14 09:45:10;;;;;;;6.28;4.07;;;19.30;51.90;;;;;;5034261;28;20056;-41
2023/05/14 09:47:39;;;;;;;4.85;3.47;;;19.30;51.20;;;;;;5039793;28;20059;-40
2023/05/14 09:50:08;;;;;;;5.35;3.33;;;19.30;51.80;;;;;;5037433;28;20071;-40
2023/05/14 09:52:35;;;;;;;4.22;3.83;;;19.40;52.50;;;;;;5039088;28;20064;-42
2023/05/14 09:55:02;;;;;;;5.50;4.00;;;19.40;52.10;;;;;;5040556;28;20520;-40
2023/05/14 09:57:30;;;;;;;4.65;3.60;;;19.40;52.20;;;;;;5035133;28;20501;-43
2023/05/14 09:59:57;;;;;;;4.50;3.05;;;19.50;52.80;;;;;;5038214;28;20057;-42
2023/05/14 10:02:26;;;;;;;4.28;3.22;;;19.60;52.10;;;;;;5031378;28;20480;-40
2023/05/14 10:04:57;;;;;;;6.18;3.17;;;19.70;50.60;;;;;;5038965;28;20061;-42
2023/05/14 10:07:29;;;;;;;4.20;3.00;;;19.70;49.80;;;;;;5037897;28;20519;-44
2023/05/14 10:10:01;;;;;;;6.05;2.85;;;19.80;49.60;;;;;;5035281;28;20045;-39
2023/05/14 10:12:32;;;;;;;2.78;2.58;;;19.80;48.30;;;;;;5035504;28;20045;-41
2023/05/14 10:15:03;;;;;;;2.97;2.13;;;19.90;49.10;;;;;;5035047;28;20060;-41
2023/05/14 10:17:34;;;;;;;3.53;2.42;;;20.00;49.60;;;;;;5036958;28;20056;-41
2023/05/14 10:20:08;;;;;;;5.45;3.20;;;20.00;49.80;;;;;;5033602;28;20052;-41
2023/05/14 10:22:35;;;;;;;5.13;3.00;;;20.10;49.70;;;;;;5039746;28;20075;-41
2023/05/14 10:25:03;;;;;;;3.33;2.80;;;20.10;49.60;;;;;;5034202;28;20056;-41
2023/05/14 10:27:32;;;;;;;2.53;2.33;;;20.20;49.30;;;;;;5043002;28;20053;-41
2023/05/14 10:29:59;;;;;;;3.17;2.53;;;20.20;48.90;;;;;;5038700;28;20058;-41
2023/05/14 10:32:31;;;;;;;3.40;2.63;;;20.30;49.20;;;;;;5039639;28;20056;-40
2023/05/14 10:35:02;;;;;;;3.25;2.72;;;20.40;49.40;;;;;;5044230;28;20061;-42
2023/05/14 10:37:30;;;;;;;3.35;2.15;;;20.40;49.80;;;;;;5040420;28;20063;-46
2023/05/14 10:39:59;;;;;;;2.55;2.30;;;20.50;49.50;;;;;;5040551;28;20060;-40
2023/05/14 10:42:28;;;;;;;2.35;2.15;;;20.60;49.20;;;;;;5042130;28;20049;-44
2023/05/14 10:44:57;;;;;;;2.15;1.88;;;20.60;49.40;;;;;;5042605;28;20703;-44
2023/05/14 10:47:26;;;;;;;2.25;1.95;;;20.70;49.40;;;;;;5043480;28;20056;-42
2023/05/14 10:49:55;;;;;;;2.88;2.28;;;20.80;49.50;;;;;;5043622;28;20057;-45
2023/05/14 10:52:23;;;;;;;4.35;2.22;;;20.90;48.80;;;;;;5044135;28;20049;-43
2023/05/14 10:54:54;;;;;;;2.70;2.35;;;20.90;47.20;;;;;;5035162;28;20049;-41
2023/05/14 10:57:22;;;;;;;5.50;2.10;;;21.00;45.90;;;;;;5038763;28;20393;-40
2023/05/14 10:59:52;;;;;;;2.63;2.00;;;21.10;46.80;;;;;;5042745;28;20053;-42
2023/05/14 11:02:22;;;;;;;2.75;2.17;;;21.20;45.60;;;;;;5043697;28;20056;-41
2023/05/14 11:04:57;;;;;;;2.42;2.22;;;21.20;46.30;;;;;;5042964;28;20373;-41
2023/05/14 11:07:28;;;;;;;3.47;2.05;;;21.30;45.50;;;;;;5038911;28;20064;-46
2023/05/14 11:10:03;;;;;;;2.88;2.00;;;21.30;44.30;;;;;;5039779;28;20049;-40
2023/05/14 11:12:31;;;;;;;2.10;1.90;;;21.40;44.10;;;;;;5042600;28;20060;-42
2023/05/14 11:14:59;;;;;;;2.75;1.92;;;21.50;44.10;;;;;;5042169;28;20057;-42
2023/05/14 11:17:27;;;;;;;2.22;2.03;;;21.50;43.80;;;;;;5040347;28;20061;-42
2023/05/14 11:19:56;;;;;;;3.90;2.30;;;21.60;44.80;;;;;;5037057;28;20048;-41
2023/05/14 11:22:23;;;;;;;3.80;2.42;;;21.60;43.70;;;;;;5042973;28;20064;-43
2023/05/14 11:24:51;;;;;;;2.95;2.10;;;21.60;43.90;;;;;;5038868;28;20049;-41
2023/05/14 11:27:21;;;;;;;3.35;2.60;;;21.60;44.30;;;;;;5034882;28;21889;-39
2023/05/14 11:29:49;;;;;;;2.38;1.90;;;21.60;44.30;;;;;;5031342;28;20058;-40
2023/05/14 11:32:17;;;;;;;6.15;2.50;;;21.60;44.30;;;;;;5033845;28;20049;-43
2023/05/14 11:34:46;;;;;;;2.70;2.40;;;21.60;44.30;;;;;;5035013;28;20405;-45
2023/05/14 11:37:14;;;;;;;2.80;2.25;;;21.60;44.00;;;;;;5039428;28;20049;-43
2023/05/14 11:39:47;;;;;;;2.40;2.20;;;21.50;43.90;;;;;;5040329;28;20701;-40
2023/05/14 11:42:16;;;;;;;3.80;2.13;;;21.50;43.90;;;;;;5037794;28;20061;-42
2023/05/14 11:44:45;;;;;;;2.33;2.10;;;21.60;43.90;;;;;;5040031;28;20076;-41
2023/05/14 11:47:12;;;;;;;3.55;2.25;;;21.60;43.80;;;;;;5038241;28;20053;-47
2023/05/14 11:49:39;;;;;;;5.10;2.38;;;21.60;44.00;;;;;;5030965;28;20057;-43
2023/05/14 11:52:10;;;;;;;3.40;2.53;;;21.70;43.30;;;;;;5033678;28;20056;-42
2023/05/14 11:54:38;;;;;;;4.57;2.53;;;21.70;44.30;;;;;;5040160;28;20053;-42
2023/05/14 11:57:09;;;;;;;2.83;2.53;;;21.70;44.10;;;;;;5034673;28;20056;-42
2023/05/14 11:59:36;;;;;;;3.10;2.72;;;21.80;45.00;;;;;;5036726;28;20484;-48
2023/05/14 12:02:09;;;;;;;3.40;2.80;;;21.70;44.70;;;;;;5027736;28;20048;-44
2023/05/14 12:04:37;;;;;;;4.75;2.88;;;21.70;44.00;;;;;;5034501;28;20057;-43
2023/05/14 12:07:09;;;;;;;3.00;2.35;;;21.70;44.10;;;;;;5036140;28;20053;-45
2023/05/14 12:09:37;;;;;;;5.45;2.88;;;21.60;44.30;;;;;;5028786;28;20777;-42
2023/05/14 12:12:08;;;;;;;3.60;2.63;;;21.60;45.20;;;;;;5032530;28;20049;-47
2023/05/14 12:14:38;;;;;;;4.68;3.33;;;21.50;46.00;;;;;;5037577;28;20393;-43
2023/05/14 12:17:12;;;;;;;3.45;2.83;;;21.50;45.50;;;;;;5031207;28;20053;-42
2023/05/14 12:19:41;;;;;;;3.67;3.10;;;21.50;45.80;;;;;;5027673;28;20492;-41
2023/05/14 12:22:09;;;;;;;4.43;3.10;;;21.50;46.60;;;;;;5029841;28;20049;-42
2023/05/14 12:24:38;;;;;;;3.53;2.95;;;21.50;46.40;;;;;;5037044;28;20049;-40
2023/05/14 12:27:06;;;;;;;3.83;3.42;;;21.40;45.20;;;;;;5039095;28;20431;-43
2023/05/14 12:29:37;;;;;;;6.63;3.35;;;21.40;45.20;;;;;;5038299;28;20052;-41
2023/05/14 12:32:09;;;;;;;7.00;3.17;;;21.40;45.40;;;;;;5030084;28;20493;-43
2023/05/14 12:34:39;;;;;;;5.32;3.55;;;21.40;45.60;;;;;;5034387;28;20049;-41
2023/05/14 12:37:07;;;;;;;4.07;3.33;;;21.30;45.50;;;;;;5033730;28;20068;-42
2023/05/14 12:39:35;;;;;;;5.20;2.97;;;21.30;44.90;;;;;;5038084;28;20058;-42
2023/05/14 12:42:03;;;;;;;4.65;2.80;;;21.20;46.00;;;;;;5037057;28;20617;-41
2023/05/14 12:44:32;;;;;;;4.07;2.85;;;21.20;45.60;;;;;;5042314;28;20381;-43
2023/05/14 12:47:00;;;;;;;5.00;2.85;;;21.20;45.60;;;;;;5029575;28;20053;-44
2023/05/14 12:49:27;;;;;;;3.35;2.67;;;21.30;44.90;;;;;;5041483;28;20058;-40